Time;durP1;ratioP1;P1;durP2;ratioP2;P2;SDS_P1;SDS_P2;PMS_P1;PMS_P2;Temp;Humidity;BMP_temperature;BMP_pressure;BME280_temperature;BME280_humidity;BME280_pressure;Samples;Min_cycle;Max_cycle;Signal;HPM_P1;HPM_P2
2023/01/18 00:02:19;;;;;;;;;;;;;;;24.72;34.59;93417.00;5042733;28;1482;-74
2023/01/18 00:04:44;;;;;;;;;;;;;;;24.73;34.83;93418.63;5042775;28;1667;-73
2023/01/18 00:07:10;;;;;;;;;;;;;;;24.77;35.06;93422.38;5036146;28;1482;-73
2023/01/18 00:09:35;;;;;;;;;;;;;;;24.78;35.20;93432.03;5036712;28;1514;-73
2023/01/18 00:12:01;;;;;;;;;;;;;;;24.76;35.05;93442.22;5032659;28;1883;-73
2023/01/18 00:14:26;;;;;;;;;;;;;;;24.81;35.12;93436.03;5039588;28;1579;-73
2023/01/18 00:16:51;;;;;;;;;;;;;;;24.79;35.30;93447.06;5039640;28;1444;-74
2023/01/18 00:19:16;;;;;;;;;;;;;;;24.76;35.01;93396.66;5053655;28;1552;-75
2023/01/18 00:21:42;;;;;;;;;;;;;;;24.78;35.22;93423.97;5039068;28;1709;-73
2023/01/18 00:24:09;;;;;;;;;;;;;;;24.77;35.37;93441.16;5044883;28;1433;-73
2023/01/18 00:26:35;;;;;;;;;;;;;;;24.75;35.35;93445.97;5043239;28;1506;-73
2023/01/18 00:29:00;;;;;;;;;;;;;;;24.76;35.50;93452.97;5054043;28;1655;-73
2023/01/18 00:31:25;;;;;;;;;;;;;;;24.74;35.65;93455.09;5032592;28;1668;-75
2023/01/18 00:33:51;;;;;;;;;;;;;;;24.75;35.44;93427.19;5037581;28;1918;-73
2023/01/18 00:36:16;;;;;;;;;;;;;;;24.73;35.47;93448.09;5043030;28;1674;-73
2023/01/18 00:38:42;;;;;;;;;;;;;;;24.78;35.50;93452.69;5040475;28;1780;-73
2023/01/18 00:41:07;;;;;;;;;;;;;;;24.74;35.46;93412.19;5038700;28;1416;-73
2023/01/18 00:43:38;;;;;;;;;;;;;;;24.75;35.50;93421.84;5042757;28;1732;-73
2023/01/18 00:46:10;;;;;;;;;;;;;;;24.78;35.63;93420.50;5037317;28;1518;-73
2023/01/18 00:48:37;;;;;;;;;;;;;;;24.77;35.43;93406.28;5049485;28;1419;-73
2023/01/18 00:51:03;;;;;;;;;;;;;;;24.75;35.81;93413.78;5061892;28;1736;-73
2023/01/18 00:53:28;;;;;;;;;;;;;;;24.77;35.40;93430.44;5050736;28;1948;-73
2023/01/18 00:55:54;;;;;;;;;;;;;;;24.78;35.64;93433.91;5045173;28;1750;-73
2023/01/18 00:58:19;;;;;;;;;;;;;;;24.81;35.52;93441.41;5036953;28;1439;-72
2023/01/18 01:00:45;;;;;;;;;;;;;;;24.80;35.51;93429.88;5054063;28;1623;-72
2023/01/18 01:03:12;;;;;;;;;;;;;;;24.79;35.59;93441.69;5038843;28;1632;-72
2023/01/18 01:08:22;;;;;;;;;;;;;;;24.76;35.73;93444.91;5024297;28;1518;-72
2023/01/18 01:10:49;;;;;;;;;;;;;;;24.77;35.49;93435.00;5038231;28;1436;-72
2023/01/18 01:26:59;;;;;;;;;;;;;;;24.74;35.78;93468.50;5032929;28;1396;-72
2023/01/18 01:29:24;;;;;;;;;;;;;;;24.76;35.88;93428.81;5028008;28;1565;-73
2023/01/18 01:31:50;;;;;;;;;;;;;;;24.78;35.84;93444.63;5032794;28;1957;-73
2023/01/18 01:34:15;;;;;;;;;;;;;;;24.80;35.96;93421.03;5031918;28;1658;-75
2023/01/18 01:36:40;;;;;;;;;;;;;;;24.82;35.97;93427.75;5041445;28;1570;-74
2023/01/18 01:39:07;;;;;;;;;;;;;;;24.83;36.46;93466.88;5037397;28;1802;-74
2023/01/18 01:41:33;;;;;;;;;;;;;;;24.88;36.15;93440.06;5033458;28;1706;-74
2023/01/18 01:44:03;;;;;;;;;;;;;;;24.85;36.21;93437.94;5033165;28;1692;-74
2023/01/18 01:46:47;;;;;;;;;;;;;;;24.88;36.43;93453.47;5049357;28;1491;-74
2023/01/18 01:49:31;;;;;;;;;;;;;;;24.86;36.57;93444.09;5038541;28;1630;-73
2023/01/18 01:51:59;;;;;;;;;;;;;;;24.87;36.54;93446.50;5029652;28;1902;-73
2023/01/18 01:54:28;;;;;;;;;;;;;;;24.87;36.54;93454.56;5026919;28;1409;-73
2023/01/18 01:56:56;;;;;;;;;;;;;;;24.84;36.49;93448.91;5042075;28;1741;-73
2023/01/18 01:59:22;;;;;;;;;;;;;;;24.83;36.65;93418.63;5048221;28;1471;-73
2023/01/18 02:01:48;;;;;;;;;;;;;;;24.83;36.67;93450.78;5032387;28;1709;-73
2023/01/18 02:04:13;;;;;;;;;;;;;;;24.88;36.49;93441.94;5023170;28;1575;-72
2023/01/18 02:06:39;;;;;;;;;;;;;;;24.86;36.68;93460.19;5047097;28;1753;-73
2023/01/18 02:09:09;;;;;;;;;;;;;;;24.86;36.67;93444.88;5038075;28;1731;-73
2023/01/18 02:11:35;;;;;;;;;;;;;;;24.84;36.78;93446.22;5033729;28;1691;-73
2023/01/18 02:14:06;;;;;;;;;;;;;;;24.84;36.71;93436.31;5036014;28;1910;-73
2023/01/18 02:16:31;;;;;;;;;;;;;;;24.85;36.72;93416.47;5031070;28;1581;-73
2023/01/18 02:19:09;;;;;;;;;;;;;;;24.83;36.76;93436.59;5034859;28;1630;-73
2023/01/18 02:21:38;;;;;;;;;;;;;;;24.87;36.50;93434.97;5035682;28;1625;-73
2023/01/18 02:24:15;;;;;;;;;;;;;;;24.83;36.82;93450.78;5030466;28;1712;-74
2023/01/18 02:26:49;;;;;;;;;;;;;;;24.84;37.04;93430.13;5022919;28;1711;-73
2023/01/18 02:29:23;;;;;;;;;;;;;;;24.88;36.97;93445.44;5031506;28;1397;-73
2023/01/18 02:31:59;;;;;;;;;;;;;;;24.94;36.98;93429.34;5036949;28;1963;-72
2023/01/18 02:34:43;;;;;;;;;;;;;;;24.93;37.08;93433.88;5021870;28;1577;-73
2023/01/18 02:37:14;;;;;;;;;;;;;;;24.98;36.97;93436.56;5026468;28;1635;-74
2023/01/18 02:39:45;;;;;;;;;;;;;;;24.98;37.35;93443.81;5023663;28;1628;-73
2023/01/18 02:48:11;;;;;;;;;;;;;;;25.04;37.20;93448.88;5012634;28;1629;-72
2023/01/18 02:50:37;;;;;;;;;;;;;;;25.09;37.42;93458.81;5012610;28;1729;-71
2023/01/18 02:53:02;;;;;;;;;;;;;;;25.10;37.05;93433.56;5029754;28;1910;-72
2023/01/18 02:55:46;;;;;;;;;;;;;;;25.09;37.38;93451.56;5033181;28;1807;-71
2023/01/18 02:58:17;;;;;;;;;;;;;;;25.10;37.39;93461.22;5041418;28;1701;-73
2023/01/18 03:00:45;;;;;;;;;;;;;;;25.11;37.28;93472.75;5023863;28;1566;-73
2023/01/18 03:03:12;;;;;;;;;;;;;;;25.12;37.76;93467.09;5038562;28;1675;-72
2023/01/18 03:05:39;;;;;;;;;;;;;;;25.10;37.64;93471.13;5032052;28;1500;-76
2023/01/18 03:08:17;;;;;;;;;;;;;;;25.15;37.56;93463.13;5033978;28;1612;-72
2023/01/18 03:11:03;;;;;;;;;;;;;;;25.11;37.40;93443.25;5032305;28;1769;-73
2023/01/18 03:13:47;;;;;;;;;;;;;;;25.11;37.87;93429.84;5022951;28;1906;-73
2023/01/18 03:16:38;;;;;;;;;;;;;;;25.09;37.77;93440.81;5020018;28;1527;-73
2023/01/18 03:21:54;;;;;;;;;;;;;;;25.09;37.94;93431.97;5032646;28;1568;-73
2023/01/18 03:24:20;;;;;;;;;;;;;;;25.06;37.69;93421.78;5022089;28;1600;-73
2023/01/18 03:26:47;;;;;;;;;;;;;;;25.06;38.04;93445.94;5034190;28;1608;-73
2023/01/18 03:34:53;;;;;;;;;;;;;;;25.02;37.98;93455.63;5023563;28;1598;-73
2023/01/18 03:37:25;;;;;;;;;;;;;;;25.02;37.98;93412.69;5030758;28;1635;-73
2023/01/18 03:39:52;;;;;;;;;;;;;;;25.00;38.18;93412.16;5030189;28;1591;-74
2023/01/18 03:42:23;;;;;;;;;;;;;;;25.03;37.92;93427.69;5031829;28;1676;-73
2023/01/18 03:45:03;;;;;;;;;;;;;;;25.02;38.17;93432.28;5029381;28;1635;-73
2023/01/18 03:47:28;;;;;;;;;;;;;;;25.04;38.05;93446.19;5022345;28;1527;-73
2023/01/18 03:49:53;;;;;;;;;;;;;;;25.05;37.98;93452.38;5029899;28;1653;-74
2023/01/18 03:52:30;;;;;;;;;;;;;;;24.99;38.25;93456.97;5030114;28;1971;-73
2023/01/18 03:54:58;;;;;;;;;;;;;;;24.99;37.96;93442.72;5027400;28;1500;-73
2023/01/18 03:57:31;;;;;;;;;;;;;;;25.01;37.95;93451.31;5019311;28;1748;-73
2023/01/18 03:59:58;;;;;;;;;;;;;;;24.99;37.91;93464.19;5031701;28;1577;-72
2023/01/18 04:02:25;;;;;;;;;;;;;;;24.96;38.12;93460.19;5030439;28;1700;-74
2023/01/18 04:04:56;;;;;;;;;;;;;;;24.97;37.95;93412.69;5035170;28;1623;-74
2023/01/18 04:07:21;;;;;;;;;;;;;;;24.97;38.22;93423.44;5030211;28;1713;-74
2023/01/18 04:09:46;;;;;;;;;;;;;;;25.01;37.89;93429.84;5021541;28;1661;-74
2023/01/18 04:12:12;;;;;;;;;;;;;;;24.99;38.04;93445.41;5046084;28;1918;-74
2023/01/18 04:14:37;;;;;;;;;;;;;;;25.00;37.75;93430.94;5031973;28;1563;-74
2023/01/18 04:17:02;;;;;;;;;;;;;;;24.96;38.04;93443.25;5029788;28;1581;-74
2023/01/18 04:19:27;;;;;;;;;;;;;;;24.97;37.91;93432.28;5027352;28;1669;-74
2023/01/18 04:21:52;;;;;;;;;;;;;;;25.00;38.04;93434.41;5029167;28;1595;-73
2023/01/18 04:24:18;;;;;;;;;;;;;;;24.99;38.10;93451.59;5035662;28;1669;-74
2023/01/18 04:26:43;;;;;;;;;;;;;;;24.96;38.08;93444.09;5029307;28;1764;-74
2023/01/18 04:29:09;;;;;;;;;;;;;;;24.96;37.96;93433.34;5030550;28;1656;-74
2023/01/18 04:31:34;;;;;;;;;;;;;;;24.97;38.29;93418.06;5029758;28;1731;-74
2023/01/18 04:33:59;;;;;;;;;;;;;;;24.99;38.28;93426.63;5032485;28;1949;-74
2023/01/18 04:36:25;;;;;;;;;;;;;;;24.99;38.37;93429.31;5031782;28;1740;-73
2023/01/18 04:38:52;;;;;;;;;;;;;;;24.99;37.97;93427.44;5060929;28;1665;-74
2023/01/18 04:41:18;;;;;;;;;;;;;;;25.07;38.25;93418.03;5042114;28;1638;-75
2023/01/18 04:43:43;;;;;;;;;;;;;;;25.02;38.18;93421.53;5025307;28;1726;-75
2023/01/18 04:46:08;;;;;;;;;;;;;;;25.03;38.13;93427.69;5037320;28;1686;-75
2023/01/18 04:48:33;;;;;;;;;;;;;;;25.09;38.01;93403.25;5040180;28;1503;-75
2023/01/18 04:50:59;;;;;;;;;;;;;;;25.06;37.95;93435.19;5028601;28;1597;-75
2023/01/18 04:53:24;;;;;;;;;;;;;;;25.03;38.11;93395.50;5028391;28;1914;-75
2023/01/18 04:55:49;;;;;;;;;;;;;;;25.04;37.97;93418.56;5022117;28;1585;-75
2023/01/18 04:58:15;;;;;;;;;;;;;;;25.04;38.20;93450.75;5030799;28;1746;-75
2023/01/18 05:00:40;;;;;;;;;;;;;;;25.01;38.02;93411.06;5033473;28;1609;-75
2023/01/18 05:03:06;;;;;;;;;;;;;;;25.01;38.30;93417.22;5035798;28;1657;-75
2023/01/18 05:05:31;;;;;;;;;;;;;;;25.00;38.32;93422.88;5025158;28;1657;-75
2023/01/18 05:07:57;;;;;;;;;;;;;;;25.01;38.41;93414.53;5033854;28;1587;-75
2023/01/18 05:10:22;;;;;;;;;;;;;;;25.03;38.25;93428.50;5045519;28;1431;-75
2023/01/18 05:12:47;;;;;;;;;;;;;;;24.99;38.29;93419.41;5038581;28;1910;-75
2023/01/18 05:15:13;;;;;;;;;;;;;;;25.00;38.38;93457.75;5033423;28;1810;-75
2023/01/18 05:17:38;;;;;;;;;;;;;;;24.98;38.44;93441.91;5026247;28;1673;-76
2023/01/18 05:20:06;;;;;;;;;;;;;;;25.00;38.36;93428.25;5052883;28;1214;-74
2023/01/18 05:22:36;;;;;;;;;;;;;;;25.01;38.58;93456.66;5038780;28;1661;-73
2023/01/18 05:25:01;;;;;;;;;;;;;;;25.00;38.40;93412.16;5034430;28;1684;-72
2023/01/18 05:27:26;;;;;;;;;;;;;;;24.96;38.74;93421.78;5022046;28;1735;-72
2023/01/18 05:29:51;;;;;;;;;;;;;;;24.97;38.89;93410.81;5024839;28;1555;-73
2023/01/18 05:32:17;;;;;;;;;;;;;;;24.97;38.99;93418.06;5044525;28;1976;-73
2023/01/18 05:34:43;;;;;;;;;;;;;;;24.94;39.04;93435.50;5040984;28;1582;-71
2023/01/18 05:37:08;;;;;;;;;;;;;;;24.95;39.20;93445.13;5036104;28;1651;-72
2023/01/18 05:39:34;;;;;;;;;;;;;;;24.94;39.23;93477.63;5042989;28;1840;-71
2023/01/18 05:41:59;;;;;;;;;;;;;;;24.96;39.27;93470.91;5033546;28;1710;-72
2023/01/18 05:44:24;;;;;;;;;;;;;;;24.97;39.21;93493.97;5031752;28;1655;-72
2023/01/18 05:46:49;;;;;;;;;;;;;;;24.96;39.42;93467.41;5031992;28;1698;-72
2023/01/18 05:49:15;;;;;;;;;;;;;;;24.95;39.35;93437.09;5032235;28;1497;-72
2023/01/18 05:51:40;;;;;;;;;;;;;;;24.96;39.24;93462.88;5032287;28;1506;-72
2023/01/18 05:54:06;;;;;;;;;;;;;;;24.98;39.42;93505.50;5036361;28;1902;-72
2023/01/18 05:56:31;;;;;;;;;;;;;;;24.99;39.42;93474.91;5032136;28;1458;-73
2023/01/18 05:58:57;;;;;;;;;;;;;;;25.01;39.39;93475.44;5032483;28;1806;-74
2023/01/18 06:01:22;;;;;;;;;;;;;;;25.06;39.27;93515.69;5032659;28;1467;-75
2023/01/18 06:03:47;;;;;;;;;;;;;;;25.01;39.51;93489.66;5023589;28;1439;-74
2023/01/18 06:06:13;;;;;;;;;;;;;;;25.01;39.22;93473.56;5030409;28;1703;-73
2023/01/18 06:08:38;;;;;;;;;;;;;;;25.04;39.28;93504.41;5037053;28;1664;-73
2023/01/18 06:11:03;;;;;;;;;;;;;;;24.81;33.97;93477.06;5033506;28;1645;-78
2023/01/18 06:13:29;;;;;;;;;;;;;;;24.50;31.81;93488.88;5045947;28;1973;-73
2023/01/18 06:15:55;;;;;;;;;;;;;;;24.22;31.45;93475.69;5031227;28;1578;-74
2023/01/18 06:18:22;;;;;;;;;;;;;;;23.98;30.48;93478.03;5033172;28;1699;-74
2023/01/18 06:20:47;;;;;;;;;;;;;;;23.81;30.61;93487.34;5035329;28;1593;-74
2023/01/18 06:23:12;;;;;;;;;;;;;;;23.72;30.22;93484.38;5032766;28;1616;-74
2023/01/18 06:25:37;;;;;;;;;;;;;;;23.63;29.73;93475.22;5029170;28;1504;-73
2023/01/18 06:28:04;;;;;;;;;;;;;;;23.50;29.28;93500.56;5031612;28;1718;-74
2023/01/18 06:30:29;;;;;;;;;;;;;;;23.44;29.32;93507.78;5032347;28;1527;-74
2023/01/18 06:32:54;;;;;;;;;;;;;;;23.38;29.02;93495.44;5034604;28;1894;-74
2023/01/18 06:35:20;;;;;;;;;;;;;;;23.34;29.15;93507.75;5031781;28;1467;-74
2023/01/18 06:37:46;;;;;;;;;;;;;;;23.26;28.94;93484.94;5022666;28;1628;-74
2023/01/18 06:40:11;;;;;;;;;;;;;;;23.26;28.58;93537.66;5030470;28;1640;-74
2023/01/18 06:42:37;;;;;;;;;;;;;;;23.23;28.78;93500.72;5032527;28;1289;-74
2023/01/18 06:45:03;;;;;;;;;;;;;;;23.11;28.51;93512.41;5055312;28;1419;-74
2023/01/18 06:47:28;;;;;;;;;;;;;;;23.16;28.49;93513.50;5027359;28;1964;-74
2023/01/18 06:49:55;;;;;;;;;;;;;;;23.13;28.23;93496.09;5028006;28;1763;-74
2023/01/18 06:52:20;;;;;;;;;;;;;;;23.13;28.32;93490.75;5034540;28;1902;-74
2023/01/18 06:54:45;;;;;;;;;;;;;;;23.12;28.08;93497.97;5027483;28;1244;-74
2023/01/18 06:57:11;;;;;;;;;;;;;;;23.07;27.96;93481.88;5031793;28;1295;-74
2023/01/18 06:59:36;;;;;;;;;;;;;;;22.93;28.13;93483.34;5038393;28;1691;-74
2023/01/18 07:02:03;;;;;;;;;;;;;;;22.98;27.67;93463.91;5028744;28;1638;-74
2023/01/18 07:04:28;;;;;;;;;;;;;;;22.99;27.83;93477.00;5028760;28;1590;-73
2023/01/18 07:06:53;;;;;;;;;;;;;;;22.73;28.96;93448.47;5029840;28;1365;-74
2023/01/18 07:09:19;;;;;;;;;;;;;;;22.71;28.95;93431.88;5028909;28;1744;-76
2023/01/18 07:11:45;;;;;;;;;;;;;;;22.87;28.81;93426.38;5018064;28;1815;-74
2023/01/18 07:14:11;;;;;;;;;;;;;;;23.02;28.63;93449.75;5029714;28;1965;-76
2023/01/18 07:16:37;;;;;;;;;;;;;;;23.13;28.32;93451.41;5058514;28;1686;-72
2023/01/18 07:19:03;;;;;;;;;;;;;;;23.16;28.72;93438.59;5028353;28;1426;-73
2023/01/18 07:21:28;;;;;;;;;;;;;;;23.30;28.94;93435.19;5025807;28;1414;-76
2023/01/18 07:23:54;;;;;;;;;;;;;;;23.35;29.55;93442.44;5026619;28;1561;-72
2023/01/18 07:26:19;;;;;;;;;;;;;;;23.46;28.94;93432.59;5028952;28;1804;-74
2023/01/18 07:28:45;;;;;;;;;;;;;;;23.50;29.54;93426.44;5028067;28;1592;-73
2023/01/18 07:31:11;;;;;;;;;;;;;;;23.62;29.76;93418.16;5029005;28;1743;-74
2023/01/18 07:33:36;;;;;;;;;;;;;;;23.71;29.85;93427.34;5019523;28;1959;-74
2023/01/18 07:36:03;;;;;;;;;;;;;;;23.81;30.14;93423.09;5030317;28;1074;-73
2023/01/18 07:38:29;;;;;;;;;;;;;;;23.87;29.96;93443.44;5029545;28;1386;-74
2023/01/18 07:41:02;;;;;;;;;;;;;;;23.91;30.33;93417.78;5030683;28;827;-73
2023/01/18 07:43:31;;;;;;;;;;;;;;;23.95;30.43;93457.13;5030559;28;1710;-74
2023/01/18 07:45:57;;;;;;;;;;;;;;;23.99;30.38;93399.31;5020133;28;1162;-74
2023/01/18 07:48:23;;;;;;;;;;;;;;;24.02;30.17;93492.53;5029411;28;1413;-73
2023/01/18 07:50:53;;;;;;;;;;;;;;;24.10;30.98;93455.56;5029575;28;1625;-72
2023/01/18 07:53:19;;;;;;;;;;;;;;;24.16;31.73;93458.00;5030850;28;1957;-74
2023/01/18 07:55:44;;;;;;;;;;;;;;;24.21;31.96;93498.19;5027057;28;1820;-73
2023/01/18 07:58:10;;;;;;;;;;;;;;;24.22;31.79;93517.75;5021504;28;1793;-73
2023/01/18 08:00:35;;;;;;;;;;;;;;;24.26;31.45;93534.09;5024263;28;1549;-73
2023/01/18 08:03:00;;;;;;;;;;;;;;;24.29;31.68;93553.13;5027233;28;1306;-73
2023/01/18 08:05:28;;;;;;;;;;;;;;;24.30;31.74;93562.78;5027657;28;1633;-73
2023/01/18 08:07:53;;;;;;;;;;;;;;;24.32;31.92;93557.97;5023799;28;1373;-73
2023/01/18 08:10:19;;;;;;;;;;;;;;;24.34;31.72;93523.66;5026559;28;1554;-74
2023/01/18 08:12:44;;;;;;;;;;;;;;;24.34;32.23;93585.31;5028717;28;1914;-73
2023/01/18 08:15:10;;;;;;;;;;;;;;;24.37;32.07;93592.81;5028503;28;1568;-73
2023/01/18 08:17:36;;;;;;;;;;;;;;;24.38;32.10;93609.72;5028055;28;1528;-73
2023/01/18 08:20:01;;;;;;;;;;;;;;;24.39;31.80;93589.88;5019395;28;1586;-72
2023/01/18 08:22:26;;;;;;;;;;;;;;;24.39;31.82;93604.09;5028315;28;1464;-72
2023/01/18 08:24:52;;;;;;;;;;;;;;;24.42;31.96;93614.28;5030129;28;1580;-73
2023/01/18 08:27:17;;;;;;;;;;;;;;;24.42;31.97;93608.94;5028159;28;1558;-73
2023/01/18 08:29:43;;;;;;;;;;;;;;;24.44;31.93;93627.44;5027851;28;1622;-72
2023/01/18 08:32:08;;;;;;;;;;;;;;;24.45;31.78;93626.41;5022519;28;1926;-72
2023/01/18 08:34:34;;;;;;;;;;;;;;;24.46;31.87;93612.72;5032416;28;1497;-73
2023/01/18 08:36:59;;;;;;;;;;;;;;;24.49;32.00;93602.53;5032184;28;1442;-73
2023/01/18 08:39:24;;;;;;;;;;;;;;;24.50;31.70;93586.19;5030080;28;1724;-73
2023/01/18 08:41:49;;;;;;;;;;;;;;;24.50;31.82;93602.25;5031030;28;1598;-73
2023/01/18 08:44:15;;;;;;;;;;;;;;;24.50;31.88;93598.78;5023409;28;1403;-73
2023/01/18 08:46:40;;;;;;;;;;;;;;;24.51;32.16;93629.91;5031557;28;1471;-73
2023/01/18 08:49:06;;;;;;;;;;;;;;;24.51;32.09;93608.44;5051129;28;1498;-73
2023/01/18 08:51:31;;;;;;;;;;;;;;;24.53;31.94;93600.94;5031003;28;1634;-72
2023/01/18 08:53:58;;;;;;;;;;;;;;;24.57;31.86;93607.38;5028663;28;1969;-72
2023/01/18 08:56:23;;;;;;;;;;;;;;;24.57;31.97;93613.56;5026412;28;1578;-73
2023/01/18 08:58:50;;;;;;;;;;;;;;;24.58;31.92;93604.44;5030473;28;1386;-73
2023/01/18 09:01:16;;;;;;;;;;;;;;;24.57;31.89;93618.91;5033057;28;1574;-73
2023/01/18 09:03:41;;;;;;;;;;;;;;;24.57;31.92;93580.56;5032856;28;1627;-73
2023/01/18 09:06:08;;;;;;;;;;;;;;;24.61;31.91;93605.78;5022462;28;1619;-73
2023/01/18 09:08:33;;;;;;;;;;;;;;;24.52;32.00;93607.38;5030334;28;1644;-73
2023/01/18 09:11:03;;;;;;;;;;;;;;;24.56;32.03;93629.88;5031568;28;1559;-73
2023/01/18 09:13:29;;;;;;;;;;;;;;;24.56;31.92;93632.56;5031687;28;1910;-73
2023/01/18 09:15:58;;;;;;;;;;;;;;;24.57;32.11;93642.25;5033017;28;1287;-73
2023/01/18 09:18:23;;;;;;;;;;;;;;;24.58;31.88;93673.34;5022696;28;1130;-73
2023/01/18 09:20:48;;;;;;;;;;;;;;;24.58;31.94;93668.78;5064437;28;1485;-73
2023/01/18 09:23:14;;;;;;;;;;;;;;;24.52;31.97;93664.47;5031690;28;1518;-73
2023/01/18 09:25:39;;;;;;;;;;;;;;;24.58;31.87;93684.06;5031996;28;877;-73
2023/01/18 09:28:05;;;;;;;;;;;;;;;24.59;31.98;93675.75;5027613;28;1652;-73
2023/01/18 09:30:31;;;;;;;;;;;;;;;24.62;32.06;93671.75;5026507;28;1332;-73
2023/01/18 09:32:56;;;;;;;;;;;;;;;24.61;32.08;93678.97;5030883;28;2015;-73
2023/01/18 09:35:21;;;;;;;;;;;;;;;24.57;32.27;93704.72;5039982;28;1685;-73
2023/01/18 09:37:47;;;;;;;;;;;;;;;24.61;32.00;93646.78;5030999;28;1523;-72
2023/01/18 09:40:16;;;;;;;;;;;;;;;24.67;31.93;93687.84;5023732;28;1727;-73
2023/01/18 09:42:43;;;;;;;;;;;;;;;24.69;32.00;93681.16;5042309;28;1659;-73
2023/01/18 09:45:15;;;;;;;;;;;;;;;24.69;32.04;93677.66;5032816;28;1569;-72
2023/01/18 09:47:46;;;;;;;;;;;;;;;24.74;32.06;93672.31;5034672;28;1540;-72
2023/01/18 09:50:12;;;;;;;;;;;;;;;24.71;31.96;93688.94;5030900;28;1376;-73
2023/01/18 09:52:37;;;;;;;;;;;;;;;24.72;32.00;93684.38;5022745;28;1898;-73
2023/01/18 09:55:21;;;;;;;;;;;;;;;24.75;31.95;93687.34;5040419;28;1673;-74
2023/01/18 09:58:05;;;;;;;;;;;;;;;24.67;31.99;93669.88;5034872;28;1520;-73
2023/01/18 10:00:33;;;;;;;;;;;;;;;24.75;32.01;93679.28;5033561;28;1680;-73
2023/01/18 10:03:02;;;;;;;;;;;;;;;24.76;31.99;93674.72;5028611;28;1697;-71
2023/01/18 10:05:33;;;;;;;;;;;;;;;24.73;32.12;93685.97;5050001;28;1513;-70
2023/01/18 10:08:17;;;;;;;;;;;;;;;24.76;32.00;93678.22;5031853;28;1422;-71
2023/01/18 10:10:45;;;;;;;;;;;;;;;24.73;32.03;93668.00;5031014;28;1529;-70
2023/01/18 10:13:37;;;;;;;;;;;;;;;24.76;32.04;93661.31;5031399;28;1972;-70
2023/01/18 10:16:02;;;;;;;;;;;;;;;24.75;32.00;93681.16;5012251;28;1754;-70
2023/01/18 10:18:29;;;;;;;;;;;;;;;24.76;32.20;93699.69;5028864;28;1589;-68
2023/01/18 10:21:00;;;;;;;;;;;;;;;24.79;32.04;93664.28;5030433;28;1609;-72
2023/01/18 10:23:37;;;;;;;;;;;;;;;24.74;32.03;93675.00;5036464;28;1714;-70
2023/01/18 10:26:26;;;;;;;;;;;;;;;24.76;31.97;93690.81;5031215;28;1593;-70
2023/01/18 10:28:58;;;;;;;;;;;;;;;24.75;31.86;93703.44;5013580;28;1240;-70
2023/01/18 10:31:29;;;;;;;;;;;;;;;24.71;31.97;93710.41;5031267;28;1452;-72
2023/01/18 10:33:55;;;;;;;;;;;;;;;24.69;31.89;93718.69;5031279;28;1961;-72
2023/01/18 10:36:23;;;;;;;;;;;;;;;24.70;32.00;93706.09;5031358;28;845;-70
2023/01/18 10:38:50;;;;;;;;;;;;;;;24.68;32.13;93727.81;5049014;28;1570;-71
2023/01/18 10:41:24;;;;;;;;;;;;;;;24.71;32.23;93747.13;5031203;28;1501;-71
2023/01/18 10:43:50;;;;;;;;;;;;;;;24.72;32.20;93729.97;5031911;28;1578;-71
2023/01/18 10:46:17;;;;;;;;;;;;;;;24.72;32.14;93754.09;5030469;28;1406;-71
2023/01/18 10:48:47;;;;;;;;;;;;;;;24.70;32.26;93746.31;5025626;28;1408;-71
2023/01/18 10:51:30;;;;;;;;;;;;;;;24.67;32.02;93750.31;5026475;28;1465;-71
2023/01/18 10:53:56;;;;;;;;;;;;;;;24.68;32.27;93767.25;5044207;28;1926;-71
2023/01/18 10:56:23;;;;;;;;;;;;;;;24.66;32.10;93754.06;5045402;28;1411;-71
2023/01/18 10:58:56;;;;;;;;;;;;;;;24.67;32.39;93762.91;5060253;28;1653;-71
2023/01/18 11:01:30;;;;;;;;;;;;;;;24.67;31.98;93768.28;5027599;28;1631;-71
2023/01/18 11:04:07;;;;;;;;;;;;;;;24.68;32.01;93761.88;5050845;28;865;-71
2023/01/18 11:06:47;;;;;;;;;;;;;;;24.65;32.03;93740.94;5044171;28;1411;-72
2023/01/18 11:09:31;;;;;;;;;;;;;;;24.65;32.33;93746.31;5028802;28;1444;-72
2023/01/18 11:12:35;;;;;;;;;;;;;;;24.61;32.03;93743.31;5038855;28;1523;-72
2023/01/18 11:15:13;;;;;;;;;;;;;;;24.64;32.34;93725.91;5029892;28;1633;-71
2023/01/18 11:17:56;;;;;;;;;;;;;;;24.62;32.30;93733.44;5027801;28;1411;-71
2023/01/18 11:20:36;;;;;;;;;;;;;;;24.65;32.31;93735.59;5031817;28;1750;-71
2023/01/18 11:23:05;;;;;;;;;;;;;;;24.64;32.06;93729.38;5026693;28;1664;-72
2023/01/18 11:25:38;;;;;;;;;;;;;;;24.65;32.13;93716.81;5025025;28;1484;-72
2023/01/18 11:28:08;;;;;;;;;;;;;;;24.64;32.16;93720.53;5030891;28;1435;-72
2023/01/18 11:30:33;;;;;;;;;;;;;;;24.64;32.07;93732.06;5032992;28;1762;-72
2023/01/18 11:32:59;;;;;;;;;;;;;;;24.67;32.11;93731.53;5030796;28;1910;-72
2023/01/18 11:35:32;;;;;;;;;;;;;;;24.68;32.18;93754.63;5029718;28;1486;-71
2023/01/18 11:37:58;;;;;;;;;;;;;;;24.71;32.08;93760.53;5033506;28;1541;-71
2023/01/18 11:40:28;;;;;;;;;;;;;;;24.69;31.96;93750.06;5032077;28;1697;-70
2023/01/18 11:43:11;;;;;;;;;;;;;;;24.71;31.98;93718.44;5035077;28;1710;-71
2023/01/18 11:45:58;;;;;;;;;;;;;;;24.72;31.97;93746.84;5038702;28;1644;-72
2023/01/18 11:48:29;;;;;;;;;;;;;;;24.69;31.77;93739.34;5023996;28;1436;-72
2023/01/18 11:50:57;;;;;;;;;;;;;;;24.76;31.79;93758.69;5032940;28;1689;-71
2023/01/18 11:53:26;;;;;;;;;;;;;;;24.83;31.87;93758.44;5030456;28;1969;-71
2023/01/18 11:56:04;;;;;;;;;;;;;;;24.81;31.89;93766.75;5031904;28;1746;-71
2023/01/18 11:58:30;;;;;;;;;;;;;;;24.79;31.93;93765.38;5021776;28;1549;-71
2023/01/18 12:01:14;;;;;;;;;;;;;;;24.76;32.00;93750.66;5028883;28;1603;-72
2023/01/18 12:03:48;;;;;;;;;;;;;;;24.81;31.85;93741.78;5029935;28;1751;-72
2023/01/18 12:06:19;;;;;;;;;;;;;;;24.73;31.93;93761.88;5035802;28;1682;-72
2023/01/18 12:08:44;;;;;;;;;;;;;;;24.79;31.80;93750.13;5055323;28;1384;-72
2023/01/18 12:11:17;;;;;;;;;;;;;;;24.79;31.61;93750.13;5017696;28;1962;-72
2023/01/18 12:14:04;;;;;;;;;;;;;;;24.82;31.63;93738.06;5028175;28;1972;-71
2023/01/18 12:16:48;;;;;;;;;;;;;;;24.81;31.57;93758.69;5024869;28;1697;-72
2023/01/18 12:19:29;;;;;;;;;;;;;;;24.84;31.71;93766.22;5028079;28;1403;-73
2023/01/18 12:22:13;;;;;;;;;;;;;;;24.86;31.67;93768.66;5020137;28;1553;-72
2023/01/18 12:24:41;;;;;;;;;;;;;;;24.85;31.59;93765.16;5029320;28;1459;-72
2023/01/18 12:27:20;;;;;;;;;;;;;;;24.82;31.76;93781.78;5029749;28;1603;-73
2023/01/18 12:29:45;;;;;;;;;;;;;;;24.84;31.67;93786.88;5034568;28;1500;-72
2023/01/18 12:32:19;;;;;;;;;;;;;;;24.85;31.79;93789.31;5024788;28;1961;-72
2023/01/18 12:34:57;;;;;;;;;;;;;;;24.84;31.54;93778.81;5028757;28;1208;-72
2023/01/18 12:37:33;;;;;;;;;;;;;;;24.81;31.88;93785.50;5020334;28;1712;-73
2023/01/18 12:39:58;;;;;;;;;;;;;;;24.82;31.80;93781.78;5029528;28;811;-72
2023/01/18 12:42:32;;;;;;;;;;;;;;;24.84;31.87;93790.34;5063000;28;1684;-72
2023/01/18 12:45:07;;;;;;;;;;;;;;;24.80;31.61;93808.06;5038758;28;1301;-71
2023/01/18 12:47:34;;;;;;;;;;;;;;;24.77;31.68;93811.25;5036573;28;1669;-72
2023/01/18 12:50:14;;;;;;;;;;;;;;;24.73;31.89;93806.66;5035150;28;1696;-72
2023/01/18 12:52:44;;;;;;;;;;;;;;;24.66;31.95;93847.94;5034038;28;1906;-70
2023/01/18 12:55:15;;;;;;;;;;;;;;;24.65;31.88;93840.97;5019380;28;1649;-72
2023/01/18 12:57:40;;;;;;;;;;;;;;;24.69;31.89;93831.31;5026579;28;1145;-72
2023/01/18 13:00:13;;;;;;;;;;;;;;;24.71;31.97;93839.13;5027405;28;1804;-72
2023/01/18 13:02:46;;;;;;;;;;;;;;;24.71;31.99;93838.31;5029598;28;1513;-72
2023/01/18 13:05:11;;;;;;;;;;;;;;;24.69;32.00;93854.66;5029826;28;886;-72
2023/01/18 13:07:38;;;;;;;;;;;;;;;24.71;31.70;93857.09;5020233;28;1778;-71
2023/01/18 13:10:04;;;;;;;;;;;;;;;24.63;32.17;93864.53;5051602;28;1767;-71
2023/01/18 13:12:30;;;;;;;;;;;;;;;24.72;32.08;93846.09;5017386;28;1914;-71
2023/01/18 13:15:14;;;;;;;;;;;;;;;24.68;31.86;93858.41;5032801;28;1759;-71
2023/01/18 13:17:43;;;;;;;;;;;;;;;24.67;31.79;93860.25;5026896;28;1545;-71
2023/01/18 13:20:12;;;;;;;;;;;;;;;24.64;31.94;93865.34;5035082;28;1707;-70
2023/01/18 13:22:55;;;;;;;;;;;;;;;24.70;32.03;93858.94;5042404;28;1745;-70
2023/01/18 13:25:29;;;;;;;;;;;;;;;24.70;31.90;93869.66;5025105;28;1713;-72
2023/01/18 13:27:59;;;;;;;;;;;;;;;24.69;31.81;93849.28;5033383;28;1631;-71
2023/01/18 13:30:25;;;;;;;;;;;;;;;24.70;32.05;93848.22;5023338;28;1619;-71
2023/01/18 13:32:51;;;;;;;;;;;;;;;24.69;31.96;93843.94;5033054;28;1898;-71
2023/01/18 13:35:23;;;;;;;;;;;;;;;24.64;31.86;93860.78;5050361;28;1687;-71
2023/01/18 13:37:50;;;;;;;;;;;;;;;24.59;32.08;93862.63;5039328;28;839;-71